sensor_id;sensor_type;location;lat;lon;timestamp;P1;durP1;ratioP1;P2;durP2;ratioP2
21034;SDS011;10676;50.848;3.272;2024-03-07T00:00:34;122.77;;;110.40;;
21034;SDS011;10676;50.848;3.272;2024-03-07T00:03:00;126.77;;;113.27;;
21034;SDS011;10676;50.848;3.272;2024-03-07T00:05:26;126.70;;;113.70;;
21034;SDS011;10676;50.848;3.272;2024-03-07T00:07:52;126.67;;;114.03;;
21034;SDS011;10676;50.848;3.272;2024-03-07T00:10:18;129.43;;;115.40;;
21034;SDS011;10676;50.848;3.272;2024-03-07T00:12:46;127.23;;;114.27;;
21034;SDS011;10676;50.848;3.272;2024-03-07T00:15:13;129.60;;;116.67;;
21034;SDS011;10676;50.848;3.272;2024-03-07T00:17:39;127.73;;;114.63;;
21034;SDS011;10676;50.848;3.272;2024-03-07T00:20:06;124.93;;;111.93;;
21034;SDS011;10676;50.848;3.272;2024-03-07T00:22:44;128.37;;;115.33;;
21034;SDS011;10676;50.848;3.272;2024-03-07T00:25:10;127.73;;;114.47;;
21034;SDS011;10676;50.848;3.272;2024-03-07T00:27:37;130.20;;;116.53;;
21034;SDS011;10676;50.848;3.272;2024-03-07T00:30:06;124.40;;;111.70;;
21034;SDS011;10676;50.848;3.272;2024-03-07T00:32:35;126.97;;;114.17;;
21034;SDS011;10676;50.848;3.272;2024-03-07T00:35:04;130.00;;;116.93;;
21034;SDS011;10676;50.848;3.272;2024-03-07T00:37:30;138.03;;;123.60;;
21034;SDS011;10676;50.848;3.272;2024-03-07T00:39:56;134.00;;;120.27;;
21034;SDS011;10676;50.848;3.272;2024-03-07T00:42:22;134.67;;;120.63;;
21034;SDS011;10676;50.848;3.272;2024-03-07T00:44:48;138.47;;;124.37;;
21034;SDS011;10676;50.848;3.272;2024-03-07T00:47:15;135.17;;;121.37;;
21034;SDS011;10676;50.848;3.272;2024-03-07T00:49:43;141.30;;;126.83;;
21034;SDS011;10676;50.848;3.272;2024-03-07T00:52:10;136.63;;;122.60;;
21034;SDS011;10676;50.848;3.272;2024-03-07T00:54:36;144.10;;;129.47;;
21034;SDS011;10676;50.848;3.272;2024-03-07T00:57:01;142.33;;;126.93;;
21034;SDS011;10676;50.848;3.272;2024-03-07T00:59:27;143.23;;;129.00;;
21034;SDS011;10676;50.848;3.272;2024-03-07T01:01:53;143.43;;;128.57;;
21034;SDS011;10676;50.848;3.272;2024-03-07T01:04:19;148.33;;;132.73;;
21034;SDS011;10676;50.848;3.272;2024-03-07T01:06:44;148.73;;;133.83;;
21034;SDS011;10676;50.848;3.272;2024-03-07T01:09:10;145.97;;;131.37;;
21034;SDS011;10676;50.848;3.272;2024-03-07T01:11:40;151.13;;;135.63;;
21034;SDS011;10676;50.848;3.272;2024-03-07T01:14:07;154.27;;;138.07;;
21034;SDS011;10676;50.848;3.272;2024-03-07T01:16:33;155.87;;;139.50;;
21034;SDS011;10676;50.848;3.272;2024-03-07T01:18:59;153.97;;;137.27;;
21034;SDS011;10676;50.848;3.272;2024-03-07T01:21:25;157.53;;;140.87;;
21034;SDS011;10676;50.848;3.272;2024-03-07T01:23:52;161.37;;;143.20;;
21034;SDS011;10676;50.848;3.272;2024-03-07T01:26:18;160.27;;;143.47;;
21034;SDS011;10676;50.848;3.272;2024-03-07T01:28:44;157.93;;;141.20;;
21034;SDS011;10676;50.848;3.272;2024-03-07T01:31:10;163.90;;;145.27;;
21034;SDS011;10676;50.848;3.272;2024-03-07T01:33:35;166.80;;;145.17;;
21034;SDS011;10676;50.848;3.272;2024-03-07T01:36:01;165.77;;;147.80;;
21034;SDS011;10676;50.848;3.272;2024-03-07T01:38:27;176.77;;;154.17;;
21034;SDS011;10676;50.848;3.272;2024-03-07T01:40:53;171.43;;;148.53;;
21034;SDS011;10676;50.848;3.272;2024-03-07T01:43:19;176.73;;;151.97;;
21034;SDS011;10676;50.848;3.272;2024-03-07T01:45:46;169.30;;;150.17;;
21034;SDS011;10676;50.848;3.272;2024-03-07T01:48:12;183.20;;;155.10;;
21034;SDS011;10676;50.848;3.272;2024-03-07T01:50:47;181.03;;;155.83;;
21034;SDS011;10676;50.848;3.272;2024-03-07T01:53:13;174.17;;;153.47;;
21034;SDS011;10676;50.848;3.272;2024-03-07T01:55:39;176.73;;;157.43;;
21034;SDS011;10676;50.848;3.272;2024-03-07T01:58:05;176.80;;;152.98;;
21034;SDS011;10676;50.848;3.272;2024-03-07T02:00:33;171.73;;;152.20;;
21034;SDS011;10676;50.848;3.272;2024-03-07T02:02:59;172.50;;;153.80;;
21034;SDS011;10676;50.848;3.272;2024-03-07T02:05:25;177.00;;;153.63;;
21034;SDS011;10676;50.848;3.272;2024-03-07T02:07:50;175.00;;;155.33;;
21034;SDS011;10676;50.848;3.272;2024-03-07T02:10:16;169.57;;;150.63;;
21034;SDS011;10676;50.848;3.272;2024-03-07T02:12:43;171.98;;;150.57;;
21034;SDS011;10676;50.848;3.272;2024-03-07T02:15:10;176.03;;;149.40;;
21034;SDS011;10676;50.848;3.272;2024-03-07T02:17:35;178.98;;;152.95;;
21034;SDS011;10676;50.848;3.272;2024-03-07T02:20:04;169.37;;;151.03;;
21034;SDS011;10676;50.848;3.272;2024-03-07T02:22:33;168.03;;;148.97;;
21034;SDS011;10676;50.848;3.272;2024-03-07T02:24:58;172.03;;;148.70;;
21034;SDS011;10676;50.848;3.272;2024-03-07T02:27:24;166.30;;;146.80;;
21034;SDS011;10676;50.848;3.272;2024-03-07T02:29:49;164.73;;;146.73;;
21034;SDS011;10676;50.848;3.272;2024-03-07T02:32:16;163.20;;;141.33;;
21034;SDS011;10676;50.848;3.272;2024-03-07T02:34:42;163.47;;;138.37;;
21034;SDS011;10676;50.848;3.272;2024-03-07T02:37:08;158.87;;;136.10;;
21034;SDS011;10676;50.848;3.272;2024-03-07T02:39:35;166.67;;;138.73;;
21034;SDS011;10676;50.848;3.272;2024-03-07T02:42:02;163.10;;;136.20;;
21034;SDS011;10676;50.848;3.272;2024-03-07T02:44:27;154.50;;;134.30;;
21034;SDS011;10676;50.848;3.272;2024-03-07T02:46:54;160.33;;;135.10;;
21034;SDS011;10676;50.848;3.272;2024-03-07T02:49:21;166.63;;;139.27;;
21034;SDS011;10676;50.848;3.272;2024-03-07T02:51:47;172.53;;;136.47;;
21034;SDS011;10676;50.848;3.272;2024-03-07T02:54:12;172.07;;;134.50;;
21034;SDS011;10676;50.848;3.272;2024-03-07T02:56:38;158.80;;;130.90;;
21034;SDS011;10676;50.848;3.272;2024-03-07T02:59:04;167.10;;;129.97;;
21034;SDS011;10676;50.848;3.272;2024-03-07T03:01:31;167.93;;;129.97;;
21034;SDS011;10676;50.848;3.272;2024-03-07T03:03:57;170.37;;;130.67;;
21034;SDS011;10676;50.848;3.272;2024-03-07T03:06:23;166.77;;;127.73;;
21034;SDS011;10676;50.848;3.272;2024-03-07T03:08:49;169.13;;;125.70;;
21034;SDS011;10676;50.848;3.272;2024-03-07T03:11:15;167.23;;;127.70;;
21034;SDS011;10676;50.848;3.272;2024-03-07T03:13:41;165.50;;;124.67;;
21034;SDS011;10676;50.848;3.272;2024-03-07T03:16:07;166.00;;;127.03;;
21034;SDS011;10676;50.848;3.272;2024-03-07T03:18:33;171.30;;;129.47;;
21034;SDS011;10676;50.848;3.272;2024-03-07T03:20:59;164.27;;;124.53;;
21034;SDS011;10676;50.848;3.272;2024-03-07T03:23:25;165.97;;;126.07;;
21034;SDS011;10676;50.848;3.272;2024-03-07T03:25:51;165.70;;;127.07;;
21034;SDS011;10676;50.848;3.272;2024-03-07T03:28:18;170.17;;;127.07;;
21034;SDS011;10676;50.848;3.272;2024-03-07T03:30:46;178.70;;;130.47;;
21034;SDS011;10676;50.848;3.272;2024-03-07T03:33:12;175.40;;;126.80;;
21034;SDS011;10676;50.848;3.272;2024-03-07T03:35:38;174.00;;;126.00;;
21034;SDS011;10676;50.848;3.272;2024-03-07T03:38:05;173.60;;;127.97;;
21034;SDS011;10676;50.848;3.272;2024-03-07T03:40:31;181.87;;;126.70;;
21034;SDS011;10676;50.848;3.272;2024-03-07T03:42:57;177.23;;;129.20;;
21034;SDS011;10676;50.848;3.272;2024-03-07T03:45:24;170.30;;;127.87;;
21034;SDS011;10676;50.848;3.272;2024-03-07T03:47:50;174.43;;;130.33;;
21034;SDS011;10676;50.848;3.272;2024-03-07T03:50:17;169.83;;;129.03;;
21034;SDS011;10676;50.848;3.272;2024-03-07T03:52:43;179.70;;;130.67;;
21034;SDS011;10676;50.848;3.272;2024-03-07T03:55:09;191.33;;;139.37;;
21034;SDS011;10676;50.848;3.272;2024-03-07T03:57:37;188.07;;;134.17;;
21034;SDS011;10676;50.848;3.272;2024-03-07T04:00:12;183.70;;;138.40;;
21034;SDS011;10676;50.848;3.272;2024-03-07T04:02:38;194.00;;;147.47;;
21034;SDS011;10676;50.848;3.272;2024-03-07T04:05:11;197.63;;;137.23;;
21034;SDS011;10676;50.848;3.272;2024-03-07T04:07:38;191.17;;;133.33;;
21034;SDS011;10676;50.848;3.272;2024-03-07T04:10:04;202.70;;;144.90;;
21034;SDS011;10676;50.848;3.272;2024-03-07T04:12:33;210.03;;;142.00;;
21034;SDS011;10676;50.848;3.272;2024-03-07T04:15:03;208.80;;;140.50;;
21034;SDS011;10676;50.848;3.272;2024-03-07T04:17:36;197.97;;;142.33;;
21034;SDS011;10676;50.848;3.272;2024-03-07T04:20:02;202.13;;;147.93;;
21034;SDS011;10676;50.848;3.272;2024-03-07T04:22:32;204.27;;;143.30;;
21034;SDS011;10676;50.848;3.272;2024-03-07T04:24:59;204.53;;;140.37;;
21034;SDS011;10676;50.848;3.272;2024-03-07T04:27:26;212.40;;;149.77;;
21034;SDS011;10676;50.848;3.272;2024-03-07T04:29:52;218.97;;;146.67;;
21034;SDS011;10676;50.848;3.272;2024-03-07T04:32:18;219.30;;;152.03;;
21034;SDS011;10676;50.848;3.272;2024-03-07T04:34:44;200.37;;;141.47;;
21034;SDS011;10676;50.848;3.272;2024-03-07T04:37:10;216.20;;;150.27;;
21034;SDS011;10676;50.848;3.272;2024-03-07T04:39:37;217.97;;;147.37;;
21034;SDS011;10676;50.848;3.272;2024-03-07T04:42:06;225.03;;;147.30;;
21034;SDS011;10676;50.848;3.272;2024-03-07T04:44:33;218.93;;;145.57;;
21034;SDS011;10676;50.848;3.272;2024-03-07T04:47:01;225.30;;;146.97;;
21034;SDS011;10676;50.848;3.272;2024-03-07T04:49:28;218.43;;;155.40;;
21034;SDS011;10676;50.848;3.272;2024-03-07T04:51:56;230.17;;;157.73;;
21034;SDS011;10676;50.848;3.272;2024-03-07T04:54:23;232.27;;;152.40;;
21034;SDS011;10676;50.848;3.272;2024-03-07T04:56:49;229.63;;;164.40;;
21034;SDS011;10676;50.848;3.272;2024-03-07T04:59:16;232.53;;;161.73;;
21034;SDS011;10676;50.848;3.272;2024-03-07T05:01:43;247.30;;;155.00;;
21034;SDS011;10676;50.848;3.272;2024-03-07T05:04:10;238.40;;;171.67;;
21034;SDS011;10676;50.848;3.272;2024-03-07T05:06:37;253.30;;;165.73;;
21034;SDS011;10676;50.848;3.272;2024-03-07T05:09:04;249.37;;;173.23;;
21034;SDS011;10676;50.848;3.272;2024-03-07T05:11:35;237.77;;;172.83;;
21034;SDS011;10676;50.848;3.272;2024-03-07T05:14:01;239.97;;;165.73;;
21034;SDS011;10676;50.848;3.272;2024-03-07T05:16:29;236.50;;;168.90;;
21034;SDS011;10676;50.848;3.272;2024-03-07T05:18:56;231.30;;;162.90;;
21034;SDS011;10676;50.848;3.272;2024-03-07T05:21:24;243.20;;;161.27;;
21034;SDS011;10676;50.848;3.272;2024-03-07T05:24:13;245.90;;;165.93;;
21034;SDS011;10676;50.848;3.272;2024-03-07T05:26:40;243.00;;;173.50;;
21034;SDS011;10676;50.848;3.272;2024-03-07T05:29:09;258.67;;;166.73;;
21034;SDS011;10676;50.848;3.272;2024-03-07T05:31:35;243.47;;;179.17;;
21034;SDS011;10676;50.848;3.272;2024-03-07T05:34:05;263.73;;;166.87;;
21034;SDS011;10676;50.848;3.272;2024-03-07T05:36:36;242.07;;;159.63;;
21034;SDS011;10676;50.848;3.272;2024-03-07T05:39:12;257.50;;;153.70;;
21034;SDS011;10676;50.848;3.272;2024-03-07T05:41:39;257.83;;;162.70;;
21034;SDS011;10676;50.848;3.272;2024-03-07T05:44:05;244.67;;;160.23;;
21034;SDS011;10676;50.848;3.272;2024-03-07T05:46:38;233.00;;;156.97;;
21034;SDS011;10676;50.848;3.272;2024-03-07T05:49:22;264.40;;;165.00;;
21034;SDS011;10676;50.848;3.272;2024-03-07T05:51:48;254.30;;;154.47;;
21034;SDS011;10676;50.848;3.272;2024-03-07T05:54:13;258.57;;;155.57;;
21034;SDS011;10676;50.848;3.272;2024-03-07T05:56:40;260.03;;;152.77;;
21034;SDS011;10676;50.848;3.272;2024-03-07T05:59:06;247.07;;;168.60;;
21034;SDS011;10676;50.848;3.272;2024-03-07T06:01:34;253.83;;;172.03;;
21034;SDS011;10676;50.848;3.272;2024-03-07T06:04:04;253.67;;;153.73;;
21034;SDS011;10676;50.848;3.272;2024-03-07T06:06:31;248.23;;;159.40;;
21034;SDS011;10676;50.848;3.272;2024-03-07T06:08:58;250.10;;;166.60;;
21034;SDS011;10676;50.848;3.272;2024-03-07T06:11:25;241.87;;;163.50;;
21034;SDS011;10676;50.848;3.272;2024-03-07T06:13:51;243.60;;;164.10;;
21034;SDS011;10676;50.848;3.272;2024-03-07T06:16:16;248.13;;;168.93;;
21034;SDS011;10676;50.848;3.272;2024-03-07T06:18:43;255.63;;;177.03;;
21034;SDS011;10676;50.848;3.272;2024-03-07T06:21:11;251.73;;;171.93;;
21034;SDS011;10676;50.848;3.272;2024-03-07T06:23:38;256.67;;;159.23;;
21034;SDS011;10676;50.848;3.272;2024-03-07T06:26:04;246.57;;;169.67;;
21034;SDS011;10676;50.848;3.272;2024-03-07T06:28:37;254.57;;;142.60;;
21034;SDS011;10676;50.848;3.272;2024-03-07T06:31:04;247.20;;;148.03;;
21034;SDS011;10676;50.848;3.272;2024-03-07T06:33:32;248.43;;;149.80;;
21034;SDS011;10676;50.848;3.272;2024-03-07T06:35:58;250.40;;;141.57;;
21034;SDS011;10676;50.848;3.272;2024-03-07T06:38:26;267.30;;;143.80;;
21034;SDS011;10676;50.848;3.272;2024-03-07T06:40:52;247.43;;;142.67;;
21034;SDS011;10676;50.848;3.272;2024-03-07T06:43:18;264.33;;;149.37;;
21034;SDS011;10676;50.848;3.272;2024-03-07T06:45:43;258.40;;;141.93;;
21034;SDS011;10676;50.848;3.272;2024-03-07T06:48:11;265.23;;;140.80;;
21034;SDS011;10676;50.848;3.272;2024-03-07T06:50:39;255.70;;;145.60;;
21034;SDS011;10676;50.848;3.272;2024-03-07T06:53:05;272.97;;;147.37;;
21034;SDS011;10676;50.848;3.272;2024-03-07T06:55:34;252.13;;;138.90;;
21034;SDS011;10676;50.848;3.272;2024-03-07T06:58:00;216.73;;;134.47;;
21034;SDS011;10676;50.848;3.272;2024-03-07T07:00:29;220.43;;;129.53;;
21034;SDS011;10676;50.848;3.272;2024-03-07T07:02:57;218.53;;;128.53;;
21034;SDS011;10676;50.848;3.272;2024-03-07T07:05:22;214.17;;;126.63;;
21034;SDS011;10676;50.848;3.272;2024-03-07T07:07:48;208.57;;;125.07;;
21034;SDS011;10676;50.848;3.272;2024-03-07T07:10:14;216.33;;;124.23;;
21034;SDS011;10676;50.848;3.272;2024-03-07T07:12:46;209.53;;;120.97;;
21034;SDS011;10676;50.848;3.272;2024-03-07T07:15:19;205.53;;;121.27;;
21034;SDS011;10676;50.848;3.272;2024-03-07T07:17:46;206.07;;;122.03;;
21034;SDS011;10676;50.848;3.272;2024-03-07T07:20:13;208.10;;;120.60;;
21034;SDS011;10676;50.848;3.272;2024-03-07T07:22:44;216.70;;;121.67;;
21034;SDS011;10676;50.848;3.272;2024-03-07T07:25:14;194.53;;;119.93;;
21034;SDS011;10676;50.848;3.272;2024-03-07T07:27:48;199.95;;;120.07;;
21034;SDS011;10676;50.848;3.272;2024-03-07T07:30:16;198.95;;;117.32;;
21034;SDS011;10676;50.848;3.272;2024-03-07T07:32:49;198.75;;;112.10;;
21034;SDS011;10676;50.848;3.272;2024-03-07T07:35:17;195.65;;;111.72;;
21034;SDS011;10676;50.848;3.272;2024-03-07T07:37:44;196.23;;;112.43;;
21034;SDS011;10676;50.848;3.272;2024-03-07T07:40:12;202.43;;;116.72;;
21034;SDS011;10676;50.848;3.272;2024-03-07T07:42:40;194.98;;;111.45;;
21034;SDS011;10676;50.848;3.272;2024-03-07T07:45:09;194.40;;;111.20;;
21034;SDS011;10676;50.848;3.272;2024-03-07T07:47:37;189.73;;;109.63;;
21034;SDS011;10676;50.848;3.272;2024-03-07T07:50:17;203.27;;;109.63;;
21034;SDS011;10676;50.848;3.272;2024-03-07T07:52:44;194.25;;;108.47;;
21034;SDS011;10676;50.848;3.272;2024-03-07T07:55:21;194.10;;;104.05;;
21034;SDS011;10676;50.848;3.272;2024-03-07T07:57:50;185.15;;;104.28;;
21034;SDS011;10676;50.848;3.272;2024-03-07T08:00:17;178.10;;;102.82;;
21034;SDS011;10676;50.848;3.272;2024-03-07T08:05:17;177.93;;;96.35;;
21034;SDS011;10676;50.848;3.272;2024-03-07T08:07:47;177.13;;;94.03;;
21034;SDS011;10676;50.848;3.272;2024-03-07T08:10:13;162.77;;;92.05;;
21034;SDS011;10676;50.848;3.272;2024-03-07T08:12:40;168.05;;;92.18;;
21034;SDS011;10676;50.848;3.272;2024-03-07T08:15:08;165.82;;;86.13;;
21034;SDS011;10676;50.848;3.272;2024-03-07T08:17:38;159.63;;;80.78;;
21034;SDS011;10676;50.848;3.272;2024-03-07T08:20:05;163.93;;;80.13;;
21034;SDS011;10676;50.848;3.272;2024-03-07T08:22:36;161.73;;;81.47;;
21034;SDS011;10676;50.848;3.272;2024-03-07T08:25:06;152.70;;;82.25;;
21034;SDS011;10676;50.848;3.272;2024-03-07T08:27:37;167.65;;;82.88;;
21034;SDS011;10676;50.848;3.272;2024-03-07T08:30:04;167.07;;;82.45;;
21034;SDS011;10676;50.848;3.272;2024-03-07T08:32:38;157.75;;;82.28;;
21034;SDS011;10676;50.848;3.272;2024-03-07T08:35:05;155.15;;;81.45;;
21034;SDS011;10676;50.848;3.272;2024-03-07T08:37:40;165.57;;;77.88;;
21034;SDS011;10676;50.848;3.272;2024-03-07T08:40:10;164.68;;;79.38;;
21034;SDS011;10676;50.848;3.272;2024-03-07T08:42:44;151.98;;;79.03;;
21034;SDS011;10676;50.848;3.272;2024-03-07T08:45:11;143.77;;;76.13;;
21034;SDS011;10676;50.848;3.272;2024-03-07T08:47:42;153.20;;;75.75;;
21034;SDS011;10676;50.848;3.272;2024-03-07T08:50:08;140.18;;;70.38;;
21034;SDS011;10676;50.848;3.272;2024-03-07T08:52:35;133.85;;;68.32;;
21034;SDS011;10676;50.848;3.272;2024-03-07T08:55:02;123.28;;;62.50;;
21034;SDS011;10676;50.848;3.272;2024-03-07T08:57:28;130.57;;;62.70;;
21034;SDS011;10676;50.848;3.272;2024-03-07T08:59:54;115.22;;;58.45;;
21034;SDS011;10676;50.848;3.272;2024-03-07T09:02:20;113.20;;;57.33;;
21034;SDS011;10676;50.848;3.272;2024-03-07T09:04:45;105.35;;;54.47;;
21034;SDS011;10676;50.848;3.272;2024-03-07T09:07:11;109.97;;;56.58;;
21034;SDS011;10676;50.848;3.272;2024-03-07T09:09:38;106.15;;;53.90;;
21034;SDS011;10676;50.848;3.272;2024-03-07T09:12:04;98.97;;;51.17;;
21034;SDS011;10676;50.848;3.272;2024-03-07T09:14:30;99.50;;;51.35;;
21034;SDS011;10676;50.848;3.272;2024-03-07T09:16:56;99.25;;;51.08;;
21034;SDS011;10676;50.848;3.272;2024-03-07T09:19:22;97.80;;;49.30;;
21034;SDS011;10676;50.848;3.272;2024-03-07T09:21:52;95.93;;;48.13;;
21034;SDS011;10676;50.848;3.272;2024-03-07T09:24:19;90.65;;;50.40;;
21034;SDS011;10676;50.848;3.272;2024-03-07T09:26:51;86.93;;;48.30;;
21034;SDS011;10676;50.848;3.272;2024-03-07T09:29:18;83.32;;;46.83;;
21034;SDS011;10676;50.848;3.272;2024-03-07T09:31:44;80.05;;;44.05;;
21034;SDS011;10676;50.848;3.272;2024-03-07T09:34:11;86.90;;;44.47;;
21034;SDS011;10676;50.848;3.272;2024-03-07T09:36:38;76.32;;;42.83;;
21034;SDS011;10676;50.848;3.272;2024-03-07T09:39:06;78.10;;;42.80;;
21034;SDS011;10676;50.848;3.272;2024-03-07T09:41:37;72.80;;;40.70;;
21034;SDS011;10676;50.848;3.272;2024-03-07T09:44:04;72.82;;;40.67;;
21034;SDS011;10676;50.848;3.272;2024-03-07T09:46:31;68.15;;;39.35;;
21034;SDS011;10676;50.848;3.272;2024-03-07T09:49:00;68.35;;;39.88;;
21034;SDS011;10676;50.848;3.272;2024-03-07T09:51:26;64.70;;;38.10;;
21034;SDS011;10676;50.848;3.272;2024-03-07T09:53:54;65.13;;;37.85;;
21034;SDS011;10676;50.848;3.272;2024-03-07T09:56:23;68.07;;;36.95;;
21034;SDS011;10676;50.848;3.272;2024-03-07T09:58:52;60.88;;;36.65;;
21034;SDS011;10676;50.848;3.272;2024-03-07T10:01:22;60.42;;;35.92;;
21034;SDS011;10676;50.848;3.272;2024-03-07T10:03:52;54.83;;;33.58;;
21034;SDS011;10676;50.848;3.272;2024-03-07T10:06:23;59.20;;;35.33;;
21034;SDS011;10676;50.848;3.272;2024-03-07T10:08:52;57.30;;;34.72;;
21034;SDS011;10676;50.848;3.272;2024-03-07T10:11:18;56.13;;;35.45;;
21034;SDS011;10676;50.848;3.272;2024-03-07T10:13:45;60.53;;;36.72;;
21034;SDS011;10676;50.848;3.272;2024-03-07T10:16:15;59.92;;;35.25;;
21034;SDS011;10676;50.848;3.272;2024-03-07T10:18:43;57.05;;;34.67;;
21034;SDS011;10676;50.848;3.272;2024-03-07T10:21:12;59.75;;;36.13;;
21034;SDS011;10676;50.848;3.272;2024-03-07T10:23:38;58.97;;;34.72;;
21034;SDS011;10676;50.848;3.272;2024-03-07T10:26:05;59.13;;;34.08;;
21034;SDS011;10676;50.848;3.272;2024-03-07T10:28:31;58.67;;;34.55;;
21034;SDS011;10676;50.848;3.272;2024-03-07T10:30:58;61.05;;;34.30;;
21034;SDS011;10676;50.848;3.272;2024-03-07T10:33:28;56.85;;;32.28;;
21034;SDS011;10676;50.848;3.272;2024-03-07T10:35:58;54.38;;;32.95;;
21034;SDS011;10676;50.848;3.272;2024-03-07T10:38:24;56.78;;;31.98;;
21034;SDS011;10676;50.848;3.272;2024-03-07T10:40:53;50.78;;;31.92;;
21034;SDS011;10676;50.848;3.272;2024-03-07T10:43:23;53.20;;;31.95;;
21034;SDS011;10676;50.848;3.272;2024-03-07T10:45:51;54.40;;;32.65;;
21034;SDS011;10676;50.848;3.272;2024-03-07T10:48:18;56.53;;;32.20;;
21034;SDS011;10676;50.848;3.272;2024-03-07T10:53:19;56.28;;;32.70;;
21034;SDS011;10676;50.848;3.272;2024-03-07T10:59:26;58.42;;;32.42;;
21034;SDS011;10676;50.848;3.272;2024-03-07T11:04:32;54.28;;;31.40;;
21034;SDS011;10676;50.848;3.272;2024-03-07T11:06:59;50.50;;;30.65;;
21034;SDS011;10676;50.848;3.272;2024-03-07T11:09:25;54.15;;;31.00;;
21034;SDS011;10676;50.848;3.272;2024-03-07T11:11:58;52.92;;;30.30;;
21034;SDS011;10676;50.848;3.272;2024-03-07T11:14:25;49.42;;;30.83;;
21034;SDS011;10676;50.848;3.272;2024-03-07T11:16:53;57.70;;;31.77;;
21034;SDS011;10676;50.848;3.272;2024-03-07T11:19:31;54.95;;;30.23;;
21034;SDS011;10676;50.848;3.272;2024-03-07T11:22:01;54.65;;;30.85;;
21034;SDS011;10676;50.848;3.272;2024-03-07T11:24:39;51.70;;;30.55;;
21034;SDS011;10676;50.848;3.272;2024-03-07T11:27:05;52.58;;;30.50;;
21034;SDS011;10676;50.848;3.272;2024-03-07T11:29:47;50.78;;;30.33;;
21034;SDS011;10676;50.848;3.272;2024-03-07T11:32:17;49.42;;;30.08;;
21034;SDS011;10676;50.848;3.272;2024-03-07T11:34:46;52.45;;;31.63;;
21034;SDS011;10676;50.848;3.272;2024-03-07T11:37:19;51.47;;;32.30;;
21034;SDS011;10676;50.848;3.272;2024-03-07T11:39:48;53.63;;;31.65;;
21034;SDS011;10676;50.848;3.272;2024-03-07T11:42:23;50.42;;;30.70;;
21034;SDS011;10676;50.848;3.272;2024-03-07T11:44:52;48.92;;;30.85;;
21034;SDS011;10676;50.848;3.272;2024-03-07T11:47:21;51.33;;;31.85;;
21034;SDS011;10676;50.848;3.272;2024-03-07T11:49:53;52.05;;;31.38;;
21034;SDS011;10676;50.848;3.272;2024-03-07T11:52:22;48.95;;;31.63;;
21034;SDS011;10676;50.848;3.272;2024-03-07T11:54:52;49.03;;;31.08;;
21034;SDS011;10676;50.848;3.272;2024-03-07T11:57:22;49.75;;;31.15;;
21034;SDS011;10676;50.848;3.272;2024-03-07T11:59:57;51.53;;;31.92;;
21034;SDS011;10676;50.848;3.272;2024-03-07T12:02:26;49.72;;;33.75;;
21034;SDS011;10676;50.848;3.272;2024-03-07T12:04:52;49.72;;;32.97;;
21034;SDS011;10676;50.848;3.272;2024-03-07T12:07:18;51.08;;;33.40;;
21034;SDS011;10676;50.848;3.272;2024-03-07T12:09:47;49.35;;;33.40;;
21034;SDS011;10676;50.848;3.272;2024-03-07T12:12:19;54.05;;;33.80;;
21034;SDS011;10676;50.848;3.272;2024-03-07T12:14:55;51.47;;;33.53;;
21034;SDS011;10676;50.848;3.272;2024-03-07T12:17:21;48.50;;;33.30;;
21034;SDS011;10676;50.848;3.272;2024-03-07T12:19:47;52.22;;;32.40;;
21034;SDS011;10676;50.848;3.272;2024-03-07T12:22:18;48.05;;;32.58;;
21034;SDS011;10676;50.848;3.272;2024-03-07T12:24:48;50.00;;;32.63;;
21034;SDS011;10676;50.848;3.272;2024-03-07T12:27:27;51.13;;;33.13;;
21034;SDS011;10676;50.848;3.272;2024-03-07T12:29:54;51.25;;;33.90;;
21034;SDS011;10676;50.848;3.272;2024-03-07T12:32:19;46.33;;;32.75;;
21034;SDS011;10676;50.848;3.272;2024-03-07T12:34:45;48.33;;;33.40;;
21034;SDS011;10676;50.848;3.272;2024-03-07T12:37:12;48.35;;;32.47;;
21034;SDS011;10676;50.848;3.272;2024-03-07T12:39:42;47.75;;;33.15;;
21034;SDS011;10676;50.848;3.272;2024-03-07T12:42:11;47.22;;;32.13;;
21034;SDS011;10676;50.848;3.272;2024-03-07T12:44:42;46.97;;;32.70;;
21034;SDS011;10676;50.848;3.272;2024-03-07T12:47:11;45.88;;;33.67;;
21034;SDS011;10676;50.848;3.272;2024-03-07T12:49:40;48.35;;;33.58;;
21034;SDS011;10676;50.848;3.272;2024-03-07T12:52:07;47.25;;;32.22;;
21034;SDS011;10676;50.848;3.272;2024-03-07T12:54:36;46.63;;;32.95;;
21034;SDS011;10676;50.848;3.272;2024-03-07T12:57:08;49.90;;;33.53;;
21034;SDS011;10676;50.848;3.272;2024-03-07T12:59:35;50.25;;;32.50;;
21034;SDS011;10676;50.848;3.272;2024-03-07T13:02:07;47.50;;;33.38;;
21034;SDS011;10676;50.848;3.272;2024-03-07T13:04:34;47.40;;;33.15;;
21034;SDS011;10676;50.848;3.272;2024-03-07T13:07:02;44.15;;;31.60;;
21034;SDS011;10676;50.848;3.272;2024-03-07T13:09:34;48.25;;;34.13;;
21034;SDS011;10676;50.848;3.272;2024-03-07T13:12:01;48.35;;;33.33;;
21034;SDS011;10676;50.848;3.272;2024-03-07T13:14:28;48.55;;;32.17;;
21034;SDS011;10676;50.848;3.272;2024-03-07T13:17:00;47.80;;;33.25;;
21034;SDS011;10676;50.848;3.272;2024-03-07T13:19:32;46.40;;;32.45;;
21034;SDS011;10676;50.848;3.272;2024-03-07T13:21:58;45.85;;;31.35;;
21034;SDS011;10676;50.848;3.272;2024-03-07T13:24:25;42.95;;;31.23;;
21034;SDS011;10676;50.848;3.272;2024-03-07T13:26:52;48.92;;;32.42;;
21034;SDS011;10676;50.848;3.272;2024-03-07T13:29:19;47.22;;;32.13;;
21034;SDS011;10676;50.848;3.272;2024-03-07T13:31:50;47.90;;;32.83;;
21034;SDS011;10676;50.848;3.272;2024-03-07T13:34:17;45.60;;;32.58;;
21034;SDS011;10676;50.848;3.272;2024-03-07T13:36:43;43.53;;;31.35;;
21034;SDS011;10676;50.848;3.272;2024-03-07T13:39:10;45.85;;;32.28;;
21034;SDS011;10676;50.848;3.272;2024-03-07T13:41:39;41.55;;;30.95;;
21034;SDS011;10676;50.848;3.272;2024-03-07T13:44:08;42.65;;;31.55;;
21034;SDS011;10676;50.848;3.272;2024-03-07T13:46:34;45.45;;;32.45;;
21034;SDS011;10676;50.848;3.272;2024-03-07T13:49:00;43.05;;;32.15;;
21034;SDS011;10676;50.848;3.272;2024-03-07T13:51:41;47.47;;;30.88;;
21034;SDS011;10676;50.848;3.272;2024-03-07T13:54:21;42.67;;;30.60;;
21034;SDS011;10676;50.848;3.272;2024-03-07T13:59:51;41.58;;;29.48;;
21034;SDS011;10676;50.848;3.272;2024-03-07T14:02:56;38.70;;;28.70;;
21034;SDS011;10676;50.848;3.272;2024-03-07T14:16:40;42.25;;;29.63;;
21034;SDS011;10676;50.848;3.272;2024-03-07T14:28:05;38.28;;;29.35;;
21034;SDS011;10676;50.848;3.272;2024-03-07T14:31:06;38.05;;;29.00;;
21034;SDS011;10676;50.848;3.272;2024-03-07T14:36:45;39.33;;;28.55;;
21034;SDS011;10676;50.848;3.272;2024-03-07T14:39:15;39.80;;;29.38;;
21034;SDS011;10676;50.848;3.272;2024-03-07T14:41:52;43.33;;;29.55;;
21034;SDS011;10676;50.848;3.272;2024-03-07T14:44:36;40.92;;;29.25;;
21034;SDS011;10676;50.848;3.272;2024-03-07T14:47:04;39.63;;;28.50;;
21034;SDS011;10676;50.848;3.272;2024-03-07T14:49:32;38.47;;;29.05;;